Nimbus Weather Services

Informe meteorológico para Carrasco, Uruguay. El informe se hizo hace 34 minutos, a las 11:00 UTC. El viento soplaba a una velocidad de 3.6 m/s (8.1 millas por hora) del noreste (040°). La temperatura era 21 °C (70 °F), con un punto de rocío de 19 °C (66 °F). La presión atmosférica era 1009 hPa (29.80 inHg). Había una humedad relativa del 88.4%. Cielo: nubosidad discontinua a una altitud de 183 metros (600 pies). En aquel momento la visibilidad global era mayor de 10 kilómetros (6.2 millas).

La clave METAR es: SUMU 251100Z 04007KT 9999 BKN006 21/19 Q1009 NOSIG

Consulta realizada el Lunes 25 de Enero de 2021 8:33. Tiempo usado para generar esta pagina:12,447 ms.